Terminal Aerodrome Forecast
Issued by NWS Austin/San Antonio, TX

Home | Current Version | Previous Version | Text Only | Print | Product List | Glossary On
Versions: 1 2 3 4 5 6 7 8 9 10 11 12 13 14 15 16 17 18 19 20 21 22 23 24 25 26 27 28 29 30 31 32 33
000
FTUS44 KEWX 240732 AAB
TAFAUS
TAF AMD
KAUS 240732Z 2408/2512 15008KT P6SM -TSRA FEW035CB SCT070 BKN090
      TEMPO 2408/2411 4SM TSRA BKN008CB
     FM241200 14008KT 3SM -SHRA BR OVC006
     FM241500 17013KT P6SM BKN015
     FM241700 18013KT P6SM SCT050
     FM250400 15010KT 6SM BR OVC015
     FM250700 15010KT 4SM BR OVC007=

USA.gov is the U.S. government's official web portal to all federal, state and local government web resources and services.